sensor_id;sensor_type;location;lat;lon;timestamp;P1;durP1;ratioP1;P2;durP2;ratioP2
22468;SDS011;11401;50.792;4.352;2023-09-12T00:02:15;8.15;;;6.72;;
22468;SDS011;11401;50.792;4.352;2023-09-12T00:04:42;12.40;;;7.40;;
22468;SDS011;11401;50.792;4.352;2023-09-12T00:07:09;9.27;;;6.75;;
22468;SDS011;11401;50.792;4.352;2023-09-12T00:09:36;10.50;;;7.18;;
22468;SDS011;11401;50.792;4.352;2023-09-12T00:12:03;9.15;;;7.15;;
22468;SDS011;11401;50.792;4.352;2023-09-12T00:14:31;11.88;;;6.90;;
22468;SDS011;11401;50.792;4.352;2023-09-12T00:16:58;9.57;;;6.75;;
22468;SDS011;11401;50.792;4.352;2023-09-12T00:19:26;9.40;;;7.57;;
22468;SDS011;11401;50.792;4.352;2023-09-12T00:21:53;11.45;;;7.28;;
22468;SDS011;11401;50.792;4.352;2023-09-12T00:24:20;10.52;;;7.10;;
22468;SDS011;11401;50.792;4.352;2023-09-12T00:26:47;15.73;;;6.90;;
22468;SDS011;11401;50.792;4.352;2023-09-12T00:29:14;12.90;;;7.40;;
22468;SDS011;11401;50.792;4.352;2023-09-12T00:31:41;8.57;;;7.55;;
22468;SDS011;11401;50.792;4.352;2023-09-12T00:34:08;9.07;;;7.68;;
22468;SDS011;11401;50.792;4.352;2023-09-12T00:36:35;10.55;;;7.03;;
22468;SDS011;11401;50.792;4.352;2023-09-12T00:39:04;10.15;;;7.90;;
22468;SDS011;11401;50.792;4.352;2023-09-12T00:41:31;11.60;;;7.53;;
22468;SDS011;11401;50.792;4.352;2023-09-12T00:43:58;12.50;;;7.82;;
22468;SDS011;11401;50.792;4.352;2023-09-12T00:46:25;8.50;;;7.15;;
22468;SDS011;11401;50.792;4.352;2023-09-12T00:48:55;14.52;;;7.78;;
22468;SDS011;11401;50.792;4.352;2023-09-12T00:51:26;13.55;;;7.93;;
22468;SDS011;11401;50.792;4.352;2023-09-12T00:53:55;10.07;;;6.93;;
22468;SDS011;11401;50.792;4.352;2023-09-12T00:56:22;10.35;;;7.07;;
22468;SDS011;11401;50.792;4.352;2023-09-12T00:58:50;10.20;;;7.50;;
22468;SDS011;11401;50.792;4.352;2023-09-12T01:01:18;11.18;;;7.45;;
22468;SDS011;11401;50.792;4.352;2023-09-12T01:03:47;10.82;;;7.82;;
22468;SDS011;11401;50.792;4.352;2023-09-12T01:06:15;12.48;;;7.57;;
22468;SDS011;11401;50.792;4.352;2023-09-12T01:08:50;10.52;;;7.38;;
22468;SDS011;11401;50.792;4.352;2023-09-12T01:11:17;12.57;;;7.88;;
22468;SDS011;11401;50.792;4.352;2023-09-12T01:13:45;10.13;;;7.50;;
22468;SDS011;11401;50.792;4.352;2023-09-12T01:16:11;9.70;;;7.90;;
22468;SDS011;11401;50.792;4.352;2023-09-12T01:18:39;10.80;;;7.72;;
22468;SDS011;11401;50.792;4.352;2023-09-12T01:27:21;10.43;;;8.10;;
22468;SDS011;11401;50.792;4.352;2023-09-12T01:29:53;10.77;;;7.72;;
22468;SDS011;11401;50.792;4.352;2023-09-12T01:32:23;9.65;;;7.93;;
22468;SDS011;11401;50.792;4.352;2023-09-12T01:34:50;12.02;;;7.78;;
22468;SDS011;11401;50.792;4.352;2023-09-12T01:37:17;10.88;;;8.02;;
22468;SDS011;11401;50.792;4.352;2023-09-12T01:39:44;11.63;;;8.82;;
22468;SDS011;11401;50.792;4.352;2023-09-12T01:42:15;10.90;;;8.90;;
22468;SDS011;11401;50.792;4.352;2023-09-12T01:44:45;12.05;;;8.75;;
22468;SDS011;11401;50.792;4.352;2023-09-12T01:47:13;10.70;;;7.72;;
22468;SDS011;11401;50.792;4.352;2023-09-12T01:49:42;13.93;;;9.38;;
22468;SDS011;11401;50.792;4.352;2023-09-12T01:52:13;13.57;;;9.15;;
22468;SDS011;11401;50.792;4.352;2023-09-12T01:54:41;13.05;;;8.45;;
22468;SDS011;11401;50.792;4.352;2023-09-12T01:57:10;10.30;;;8.48;;
22468;SDS011;11401;50.792;4.352;2023-09-12T01:59:39;9.90;;;8.15;;
22468;SDS011;11401;50.792;4.352;2023-09-12T02:02:06;8.65;;;7.75;;
22468;SDS011;11401;50.792;4.352;2023-09-12T02:04:33;13.13;;;9.20;;
22468;SDS011;11401;50.792;4.352;2023-09-12T02:07:00;16.45;;;11.13;;
22468;SDS011;11401;50.792;4.352;2023-09-12T02:09:27;14.98;;;9.73;;
22468;SDS011;11401;50.792;4.352;2023-09-12T02:11:54;13.52;;;9.68;;
22468;SDS011;11401;50.792;4.352;2023-09-12T02:14:21;13.23;;;9.73;;
22468;SDS011;11401;50.792;4.352;2023-09-12T02:16:48;15.43;;;10.30;;
22468;SDS011;11401;50.792;4.352;2023-09-12T02:19:19;13.63;;;10.93;;
22468;SDS011;11401;50.792;4.352;2023-09-12T02:21:47;14.45;;;10.60;;
22468;SDS011;11401;50.792;4.352;2023-09-12T02:24:14;16.60;;;11.45;;
22468;SDS011;11401;50.792;4.352;2023-09-12T02:26:43;18.92;;;11.50;;
22468;SDS011;11401;50.792;4.352;2023-09-12T02:29:10;16.13;;;12.10;;
22468;SDS011;11401;50.792;4.352;2023-09-12T02:31:37;16.20;;;11.88;;
22468;SDS011;11401;50.792;4.352;2023-09-12T02:34:04;16.35;;;11.70;;
22468;SDS011;11401;50.792;4.352;2023-09-12T02:36:31;20.13;;;12.80;;
22468;SDS011;11401;50.792;4.352;2023-09-12T02:38:59;25.92;;;14.65;;
22468;SDS011;11401;50.792;4.352;2023-09-12T02:41:26;25.92;;;15.85;;
22468;SDS011;11401;50.792;4.352;2023-09-12T02:43:53;25.88;;;16.65;;
22468;SDS011;11401;50.792;4.352;2023-09-12T02:46:20;26.30;;;17.25;;
22468;SDS011;11401;50.792;4.352;2023-09-12T02:48:48;25.90;;;17.05;;
22468;SDS011;11401;50.792;4.352;2023-09-12T02:51:15;32.15;;;20.48;;
22468;SDS011;11401;50.792;4.352;2023-09-12T02:53:42;26.63;;;18.33;;
22468;SDS011;11401;50.792;4.352;2023-09-12T02:56:09;36.15;;;20.02;;
22468;SDS011;11401;50.792;4.352;2023-09-12T02:58:36;28.10;;;18.60;;
22468;SDS011;11401;50.792;4.352;2023-09-12T03:01:03;28.35;;;18.52;;
22468;SDS011;11401;50.792;4.352;2023-09-12T03:03:32;30.55;;;18.65;;
22468;SDS011;11401;50.792;4.352;2023-09-12T03:06:00;31.88;;;19.42;;
22468;SDS011;11401;50.792;4.352;2023-09-12T03:08:30;32.03;;;18.88;;
22468;SDS011;11401;50.792;4.352;2023-09-12T03:10:57;31.30;;;20.23;;
22468;SDS011;11401;50.792;4.352;2023-09-12T03:13:24;28.92;;;18.58;;
22468;SDS011;11401;50.792;4.352;2023-09-12T03:15:52;31.55;;;20.05;;
22468;SDS011;11401;50.792;4.352;2023-09-12T03:18:19;27.52;;;18.52;;
22468;SDS011;11401;50.792;4.352;2023-09-12T03:20:46;29.25;;;19.38;;
22468;SDS011;11401;50.792;4.352;2023-09-12T03:23:13;26.10;;;19.05;;
22468;SDS011;11401;50.792;4.352;2023-09-12T03:25:40;30.65;;;19.20;;
22468;SDS011;11401;50.792;4.352;2023-09-12T03:28:07;27.00;;;17.92;;
22468;SDS011;11401;50.792;4.352;2023-09-12T03:30:35;25.75;;;17.10;;
22468;SDS011;11401;50.792;4.352;2023-09-12T03:33:04;26.85;;;17.90;;
22468;SDS011;11401;50.792;4.352;2023-09-12T03:35:33;25.25;;;16.92;;
22468;SDS011;11401;50.792;4.352;2023-09-12T03:38:00;25.25;;;17.02;;
22468;SDS011;11401;50.792;4.352;2023-09-12T03:40:28;26.85;;;17.75;;
22468;SDS011;11401;50.792;4.352;2023-09-12T03:42:57;26.38;;;16.63;;
22468;SDS011;11401;50.792;4.352;2023-09-12T03:45:24;26.48;;;17.15;;
22468;SDS011;11401;50.792;4.352;2023-09-12T03:47:52;23.67;;;16.33;;
22468;SDS011;11401;50.792;4.352;2023-09-12T03:50:19;24.15;;;17.23;;
22468;SDS011;11401;50.792;4.352;2023-09-12T03:52:46;23.60;;;16.00;;
22468;SDS011;11401;50.792;4.352;2023-09-12T03:55:13;23.55;;;16.23;;
22468;SDS011;11401;50.792;4.352;2023-09-12T03:57:40;27.17;;;17.17;;
22468;SDS011;11401;50.792;4.352;2023-09-12T04:00:08;23.45;;;15.50;;
22468;SDS011;11401;50.792;4.352;2023-09-12T04:02:45;28.00;;;17.45;;
22468;SDS011;11401;50.792;4.352;2023-09-12T04:05:13;23.55;;;16.15;;
22468;SDS011;11401;50.792;4.352;2023-09-12T04:07:41;26.17;;;17.10;;
22468;SDS011;11401;50.792;4.352;2023-09-12T04:10:08;24.58;;;16.13;;
22468;SDS011;11401;50.792;4.352;2023-09-12T04:12:35;24.77;;;16.52;;
22468;SDS011;11401;50.792;4.352;2023-09-12T04:15:02;23.88;;;15.10;;
22468;SDS011;11401;50.792;4.352;2023-09-12T04:17:30;20.25;;;14.48;;
22468;SDS011;11401;50.792;4.352;2023-09-12T04:19:57;24.15;;;15.95;;
22468;SDS011;11401;50.792;4.352;2023-09-12T04:22:24;26.45;;;16.00;;
22468;SDS011;11401;50.792;4.352;2023-09-12T04:24:51;22.33;;;15.50;;
22468;SDS011;11401;50.792;4.352;2023-09-12T04:27:18;24.88;;;15.30;;
22468;SDS011;11401;50.792;4.352;2023-09-12T04:29:45;24.02;;;16.13;;
22468;SDS011;11401;50.792;4.352;2023-09-12T04:32:12;24.33;;;16.02;;
22468;SDS011;11401;50.792;4.352;2023-09-12T04:34:42;22.60;;;16.33;;
22468;SDS011;11401;50.792;4.352;2023-09-12T04:37:10;21.55;;;15.68;;
22468;SDS011;11401;50.792;4.352;2023-09-12T04:39:37;20.15;;;14.40;;
22468;SDS011;11401;50.792;4.352;2023-09-12T04:42:04;21.15;;;14.48;;
22468;SDS011;11401;50.792;4.352;2023-09-12T04:44:35;23.50;;;15.85;;
22468;SDS011;11401;50.792;4.352;2023-09-12T04:47:02;23.70;;;15.63;;
22468;SDS011;11401;50.792;4.352;2023-09-12T04:49:30;26.70;;;15.77;;
22468;SDS011;11401;50.792;4.352;2023-09-12T04:51:57;21.48;;;14.73;;
22468;SDS011;11401;50.792;4.352;2023-09-12T04:54:24;24.27;;;14.60;;
22468;SDS011;11401;50.792;4.352;2023-09-12T04:56:52;21.63;;;14.73;;
22468;SDS011;11401;50.792;4.352;2023-09-12T04:59:19;18.73;;;13.52;;
22468;SDS011;11401;50.792;4.352;2023-09-12T05:01:46;19.67;;;14.10;;
22468;SDS011;11401;50.792;4.352;2023-09-12T05:04:14;20.85;;;14.18;;
22468;SDS011;11401;50.792;4.352;2023-09-12T05:06:41;23.10;;;14.48;;
22468;SDS011;11401;50.792;4.352;2023-09-12T05:09:09;21.02;;;14.63;;
22468;SDS011;11401;50.792;4.352;2023-09-12T05:11:37;21.83;;;13.15;;
22468;SDS011;11401;50.792;4.352;2023-09-12T05:14:05;24.08;;;13.88;;
22468;SDS011;11401;50.792;4.352;2023-09-12T05:16:32;21.55;;;14.73;;
22468;SDS011;11401;50.792;4.352;2023-09-12T05:18:59;24.52;;;14.30;;
22468;SDS011;11401;50.792;4.352;2023-09-12T05:21:26;20.80;;;14.07;;
22468;SDS011;11401;50.792;4.352;2023-09-12T05:23:53;19.85;;;14.07;;
22468;SDS011;11401;50.792;4.352;2023-09-12T05:26:20;19.90;;;14.48;;
22468;SDS011;11401;50.792;4.352;2023-09-12T05:28:47;20.63;;;13.73;;
22468;SDS011;11401;50.792;4.352;2023-09-12T05:31:14;20.70;;;14.63;;
22468;SDS011;11401;50.792;4.352;2023-09-12T05:33:41;24.17;;;15.15;;
22468;SDS011;11401;50.792;4.352;2023-09-12T05:36:09;18.60;;;12.82;;
22468;SDS011;11401;50.792;4.352;2023-09-12T05:38:36;20.67;;;14.32;;
22468;SDS011;11401;50.792;4.352;2023-09-12T05:41:03;24.08;;;14.15;;
22468;SDS011;11401;50.792;4.352;2023-09-12T05:43:30;17.80;;;12.23;;
22468;SDS011;11401;50.792;4.352;2023-09-12T05:45:57;17.92;;;13.63;;
22468;SDS011;11401;50.792;4.352;2023-09-12T05:48:24;16.77;;;12.15;;
22468;SDS011;11401;50.792;4.352;2023-09-12T05:50:52;17.27;;;11.80;;
22468;SDS011;11401;50.792;4.352;2023-09-12T05:53:19;21.45;;;13.30;;
22468;SDS011;11401;50.792;4.352;2023-09-12T05:55:46;17.52;;;12.40;;
22468;SDS011;11401;50.792;4.352;2023-09-12T05:58:13;21.60;;;13.18;;
22468;SDS011;11401;50.792;4.352;2023-09-12T06:00:41;23.35;;;13.80;;
22468;SDS011;11401;50.792;4.352;2023-09-12T06:03:09;19.90;;;12.52;;
22468;SDS011;11401;50.792;4.352;2023-09-12T06:05:36;21.90;;;12.90;;
22468;SDS011;11401;50.792;4.352;2023-09-12T06:08:03;21.23;;;12.55;;
22468;SDS011;11401;50.792;4.352;2023-09-12T06:10:31;15.20;;;11.35;;
22468;SDS011;11401;50.792;4.352;2023-09-12T06:12:58;15.60;;;11.45;;
22468;SDS011;11401;50.792;4.352;2023-09-12T06:15:25;17.17;;;12.88;;
22468;SDS011;11401;50.792;4.352;2023-09-12T06:17:52;14.90;;;11.38;;
22468;SDS011;11401;50.792;4.352;2023-09-12T06:20:20;15.60;;;10.70;;
22468;SDS011;11401;50.792;4.352;2023-09-12T06:22:48;21.42;;;12.65;;
22468;SDS011;11401;50.792;4.352;2023-09-12T06:25:15;21.48;;;12.48;;
22468;SDS011;11401;50.792;4.352;2023-09-12T06:27:42;14.70;;;11.70;;
22468;SDS011;11401;50.792;4.352;2023-09-12T06:30:10;16.80;;;11.25;;
22468;SDS011;11401;50.792;4.352;2023-09-12T06:32:37;19.95;;;13.27;;
22468;SDS011;11401;50.792;4.352;2023-09-12T06:35:05;19.77;;;13.68;;
22468;SDS011;11401;50.792;4.352;2023-09-12T06:37:33;17.30;;;12.63;;
22468;SDS011;11401;50.792;4.352;2023-09-12T06:40:00;20.23;;;13.80;;
22468;SDS011;11401;50.792;4.352;2023-09-12T06:42:27;20.35;;;12.57;;
22468;SDS011;11401;50.792;4.352;2023-09-12T06:44:54;20.35;;;13.57;;
22468;SDS011;11401;50.792;4.352;2023-09-12T06:47:21;23.10;;;13.88;;
22468;SDS011;11401;50.792;4.352;2023-09-12T06:49:48;24.48;;;15.75;;
22468;SDS011;11401;50.792;4.352;2023-09-12T06:52:20;20.35;;;13.65;;
22468;SDS011;11401;50.792;4.352;2023-09-12T06:54:48;15.07;;;10.88;;
22468;SDS011;11401;50.792;4.352;2023-09-12T06:57:15;19.50;;;13.25;;
22468;SDS011;11401;50.792;4.352;2023-09-12T06:59:42;20.52;;;14.85;;
22468;SDS011;11401;50.792;4.352;2023-09-12T07:02:09;21.20;;;13.38;;
22468;SDS011;11401;50.792;4.352;2023-09-12T07:04:38;19.92;;;13.75;;
22468;SDS011;11401;50.792;4.352;2023-09-12T07:07:05;23.13;;;14.50;;
22468;SDS011;11401;50.792;4.352;2023-09-12T07:09:32;21.60;;;15.00;;
22468;SDS011;11401;50.792;4.352;2023-09-12T07:12:00;11.55;;;9.82;;
22468;SDS011;11401;50.792;4.352;2023-09-12T07:14:27;24.02;;;14.30;;
22468;SDS011;11401;50.792;4.352;2023-09-12T07:16:56;19.85;;;13.70;;
22468;SDS011;11401;50.792;4.352;2023-09-12T07:19:23;18.83;;;12.45;;
22468;SDS011;11401;50.792;4.352;2023-09-12T07:21:50;18.33;;;13.43;;
22468;SDS011;11401;50.792;4.352;2023-09-12T07:24:17;18.85;;;13.43;;
22468;SDS011;11401;50.792;4.352;2023-09-12T07:26:44;21.45;;;13.68;;
22468;SDS011;11401;50.792;4.352;2023-09-12T07:29:13;17.13;;;12.57;;
22468;SDS011;11401;50.792;4.352;2023-09-12T07:31:40;13.43;;;9.48;;
22468;SDS011;11401;50.792;4.352;2023-09-12T11:38:40;7.70;;;5.00;;
22468;SDS011;11401;50.792;4.352;2023-09-12T11:41:07;9.38;;;6.82;;
22468;SDS011;11401;50.792;4.352;2023-09-12T11:43:34;7.80;;;5.63;;
22468;SDS011;11401;50.792;4.352;2023-09-12T11:46:04;7.47;;;5.03;;
22468;SDS011;11401;50.792;4.352;2023-09-12T11:48:34;6.30;;;5.07;;
22468;SDS011;11401;50.792;4.352;2023-09-12T11:51:01;6.45;;;5.28;;
22468;SDS011;11401;50.792;4.352;2023-09-12T11:53:35;6.93;;;5.15;;
22468;SDS011;11401;50.792;4.352;2023-09-12T11:56:02;6.72;;;5.45;;
22468;SDS011;11401;50.792;4.352;2023-09-12T11:58:29;5.47;;;4.80;;
22468;SDS011;11401;50.792;4.352;2023-09-12T12:00:57;6.35;;;4.88;;
22468;SDS011;11401;50.792;4.352;2023-09-12T12:03:26;6.00;;;5.40;;
22468;SDS011;11401;50.792;4.352;2023-09-12T12:05:54;8.35;;;5.72;;
22468;SDS011;11401;50.792;4.352;2023-09-12T12:08:23;5.05;;;4.63;;
22468;SDS011;11401;50.792;4.352;2023-09-12T12:10:53;6.47;;;5.10;;
22468;SDS011;11401;50.792;4.352;2023-09-12T12:13:21;6.00;;;5.22;;
22468;SDS011;11401;50.792;4.352;2023-09-12T12:15:50;5.63;;;5.07;;
22468;SDS011;11401;50.792;4.352;2023-09-12T12:18:17;5.57;;;5.07;;
22468;SDS011;11401;50.792;4.352;2023-09-12T12:20:45;6.55;;;5.18;;
22468;SDS011;11401;50.792;4.352;2023-09-12T12:23:12;5.13;;;4.63;;
22468;SDS011;11401;50.792;4.352;2023-09-12T12:25:39;6.15;;;5.18;;
22468;SDS011;11401;50.792;4.352;2023-09-12T12:28:06;5.47;;;4.63;;
22468;SDS011;11401;50.792;4.352;2023-09-12T12:30:34;6.28;;;4.70;;
22468;SDS011;11401;50.792;4.352;2023-09-12T12:33:06;6.18;;;5.10;;
22468;SDS011;11401;50.792;4.352;2023-09-12T12:36:04;5.97;;;4.60;;
22468;SDS011;11401;50.792;4.352;2023-09-12T12:38:36;4.97;;;4.53;;
22468;SDS011;11401;50.792;4.352;2023-09-12T12:41:23;6.38;;;4.65;;
22468;SDS011;11401;50.792;4.352;2023-09-12T12:44:08;4.78;;;4.30;;
22468;SDS011;11401;50.792;4.352;2023-09-12T12:46:47;5.32;;;4.82;;
22468;SDS011;11401;50.792;4.352;2023-09-12T12:49:21;5.55;;;4.45;;
22468;SDS011;11401;50.792;4.352;2023-09-12T12:51:49;4.30;;;3.90;;
22468;SDS011;11401;50.792;4.352;2023-09-12T12:54:17;4.70;;;4.30;;
22468;SDS011;11401;50.792;4.352;2023-09-12T12:56:49;4.88;;;4.25;;
22468;SDS011;11401;50.792;4.352;2023-09-12T12:59:16;4.88;;;4.47;;
22468;SDS011;11401;50.792;4.352;2023-09-12T13:01:43;4.80;;;4.40;;
22468;SDS011;11401;50.792;4.352;2023-09-12T13:04:11;5.32;;;4.50;;
22468;SDS011;11401;50.792;4.352;2023-09-12T13:06:38;5.13;;;4.60;;
22468;SDS011;11401;50.792;4.352;2023-09-12T13:09:07;4.57;;;4.22;;
22468;SDS011;11401;50.792;4.352;2023-09-12T13:11:35;5.25;;;3.90;;
22468;SDS011;11401;50.792;4.352;2023-09-12T13:14:03;4.70;;;4.30;;
22468;SDS011;11401;50.792;4.352;2023-09-12T13:16:37;5.38;;;4.50;;
22468;SDS011;11401;50.792;4.352;2023-09-12T13:19:09;5.18;;;4.68;;
22468;SDS011;11401;50.792;4.352;2023-09-12T13:21:37;5.72;;;4.30;;
22468;SDS011;11401;50.792;4.352;2023-09-12T13:24:05;4.47;;;3.70;;
22468;SDS011;11401;50.792;4.352;2023-09-12T13:26:33;4.88;;;4.47;;
22468;SDS011;11401;50.792;4.352;2023-09-12T13:29:00;5.70;;;4.47;;
22468;SDS011;11401;50.792;4.352;2023-09-12T13:31:27;5.30;;;4.25;;
22468;SDS011;11401;50.792;4.352;2023-09-12T13:33:54;5.68;;;4.68;;
22468;SDS011;11401;50.792;4.352;2023-09-12T13:36:22;4.32;;;3.83;;
22468;SDS011;11401;50.792;4.352;2023-09-12T13:38:50;4.88;;;4.43;;
22468;SDS011;11401;50.792;4.352;2023-09-12T13:41:18;5.72;;;4.78;;
22468;SDS011;11401;50.792;4.352;2023-09-12T13:43:45;4.45;;;4.05;;
22468;SDS011;11401;50.792;4.352;2023-09-12T13:46:13;4.63;;;4.22;;
22468;SDS011;11401;50.792;4.352;2023-09-12T13:48:40;5.68;;;5.18;;
22468;SDS011;11401;50.792;4.352;2023-09-12T13:51:07;4.97;;;4.57;;
22468;SDS011;11401;50.792;4.352;2023-09-12T13:53:34;4.57;;;4.18;;
22468;SDS011;11401;50.792;4.352;2023-09-12T13:56:01;6.05;;;5.43;;
22468;SDS011;11401;50.792;4.352;2023-09-12T13:58:33;4.60;;;4.20;;
22468;SDS011;11401;50.792;4.352;2023-09-12T14:01:17;6.03;;;5.45;;
22468;SDS011;11401;50.792;4.352;2023-09-12T14:03:58;4.95;;;4.47;;
22468;SDS011;11401;50.792;4.352;2023-09-12T14:06:26;5.40;;;4.32;;
22468;SDS011;11401;50.792;4.352;2023-09-12T14:08:54;4.22;;;3.90;;
22468;SDS011;11401;50.792;4.352;2023-09-12T14:11:21;5.15;;;3.78;;
22468;SDS011;11401;50.792;4.352;2023-09-12T14:14:01;4.80;;;4.40;;
22468;SDS011;11401;50.792;4.352;2023-09-12T14:16:42;4.97;;;4.57;;
22468;SDS011;11401;50.792;4.352;2023-09-12T14:19:13;5.35;;;4.25;;
22468;SDS011;11401;50.792;4.352;2023-09-12T14:21:42;5.47;;;4.97;;
22468;SDS011;11401;50.792;4.352;2023-09-12T14:24:12;5.10;;;4.57;;
22468;SDS011;11401;50.792;4.352;2023-09-12T14:26:39;4.22;;;3.92;;
22468;SDS011;11401;50.792;4.352;2023-09-12T14:29:07;4.70;;;4.28;;
22468;SDS011;11401;50.792;4.352;2023-09-12T14:31:35;4.85;;;4.45;;
22468;SDS011;11401;50.792;4.352;2023-09-12T14:34:04;4.93;;;4.53;;
22468;SDS011;11401;50.792;4.352;2023-09-12T14:36:32;4.10;;;3.80;;
22468;SDS011;11401;50.792;4.352;2023-09-12T14:39:00;4.40;;;4.03;;
22468;SDS011;11401;50.792;4.352;2023-09-12T14:41:27;4.28;;;3.88;;
22468;SDS011;11401;50.792;4.352;2023-09-12T14:43:54;4.60;;;4.20;;
22468;SDS011;11401;50.792;4.352;2023-09-12T14:46:21;6.45;;;4.82;;
22468;SDS011;11401;50.792;4.352;2023-09-12T14:48:48;5.93;;;4.43;;
22468;SDS011;11401;50.792;4.352;2023-09-12T14:51:25;4.38;;;3.97;;
22468;SDS011;11401;50.792;4.352;2023-09-12T14:53:59;4.63;;;4.22;;
22468;SDS011;11401;50.792;4.352;2023-09-12T14:56:27;5.10;;;4.57;;
22468;SDS011;11401;50.792;4.352;2023-09-12T14:58:54;6.05;;;4.80;;
22468;SDS011;11401;50.792;4.352;2023-09-12T15:01:21;5.05;;;4.53;;
22468;SDS011;11401;50.792;4.352;2023-09-12T15:03:48;5.65;;;5.15;;
22468;SDS011;11401;50.792;4.352;2023-09-12T15:06:15;5.00;;;4.43;;
22468;SDS011;11401;50.792;4.352;2023-09-12T15:08:45;5.22;;;4.82;;
22468;SDS011;11401;50.792;4.352;2023-09-12T15:11:13;4.88;;;4.47;;
22468;SDS011;11401;50.792;4.352;2023-09-12T15:13:40;6.05;;;5.28;;
22468;SDS011;11401;50.792;4.352;2023-09-12T15:16:08;5.22;;;4.22;;
22468;SDS011;11401;50.792;4.352;2023-09-12T15:18:35;5.18;;;4.72;;
22468;SDS011;11401;50.792;4.352;2023-09-12T15:21:04;5.10;;;4.70;;
22468;SDS011;11401;50.792;4.352;2023-09-12T15:23:31;6.25;;;5.65;;
22468;SDS011;11401;50.792;4.352;2023-09-12T15:25:58;6.68;;;5.85;;
22468;SDS011;11401;50.792;4.352;2023-09-12T15:28:26;7.20;;;6.50;;
22468;SDS011;11401;50.792;4.352;2023-09-12T15:30:53;7.10;;;6.20;;
22468;SDS011;11401;50.792;4.352;2023-09-12T15:33:20;8.68;;;6.93;;
22468;SDS011;11401;50.792;4.352;2023-09-12T15:35:49;12.82;;;7.38;;
22468;SDS011;11401;50.792;4.352;2023-09-12T15:38:16;8.35;;;6.22;;
22468;SDS011;11401;50.792;4.352;2023-09-12T15:40:43;8.48;;;7.05;;
22468;SDS011;11401;50.792;4.352;2023-09-12T15:43:10;8.52;;;7.47;;
22468;SDS011;11401;50.792;4.352;2023-09-12T15:45:50;7.25;;;6.53;;
22468;SDS011;11401;50.792;4.352;2023-09-12T15:48:17;8.25;;;6.95;;
22468;SDS011;11401;50.792;4.352;2023-09-12T15:50:45;7.97;;;6.82;;
22468;SDS011;11401;50.792;4.352;2023-09-12T15:53:12;8.13;;;6.60;;
22468;SDS011;11401;50.792;4.352;2023-09-12T15:55:39;6.30;;;5.65;;
22468;SDS011;11401;50.792;4.352;2023-09-12T15:58:06;7.10;;;6.15;;
22468;SDS011;11401;50.792;4.352;2023-09-12T16:00:34;9.23;;;6.97;;
22468;SDS011;11401;50.792;4.352;2023-09-12T16:03:01;7.97;;;7.13;;
22468;SDS011;11401;50.792;4.352;2023-09-12T16:05:29;6.63;;;5.97;;
22468;SDS011;11401;50.792;4.352;2023-09-12T16:07:56;8.70;;;6.40;;
22468;SDS011;11401;50.792;4.352;2023-09-12T16:10:24;8.35;;;5.95;;
22468;SDS011;11401;50.792;4.352;2023-09-12T16:12:51;19.35;;;10.77;;
22468;SDS011;11401;50.792;4.352;2023-09-12T16:15:18;7.82;;;7.05;;
22468;SDS011;11401;50.792;4.352;2023-09-12T16:17:45;16.73;;;12.25;;
22468;SDS011;11401;50.792;4.352;2023-09-12T16:20:13;17.35;;;11.80;;
22468;SDS011;11401;50.792;4.352;2023-09-12T16:22:40;18.00;;;12.75;;
22468;SDS011;11401;50.792;4.352;2023-09-12T16:25:08;13.02;;;10.20;;
22468;SDS011;11401;50.792;4.352;2023-09-12T16:27:36;16.98;;;12.50;;
22468;SDS011;11401;50.792;4.352;2023-09-12T16:30:04;16.38;;;11.13;;
22468;SDS011;11401;50.792;4.352;2023-09-12T16:32:36;17.45;;;13.52;;
22468;SDS011;11401;50.792;4.352;2023-09-12T16:35:04;16.65;;;12.35;;
22468;SDS011;11401;50.792;4.352;2023-09-12T16:37:31;14.10;;;11.27;;
22468;SDS011;11401;50.792;4.352;2023-09-12T16:39:59;16.92;;;12.93;;
22468;SDS011;11401;50.792;4.352;2023-09-12T16:42:28;14.95;;;12.48;;
22468;SDS011;11401;50.792;4.352;2023-09-12T16:44:57;16.17;;;12.52;;
22468;SDS011;11401;50.792;4.352;2023-09-12T16:47:31;18.52;;;13.13;;
22468;SDS011;11401;50.792;4.352;2023-09-12T16:49:58;19.25;;;14.68;;
22468;SDS011;11401;50.792;4.352;2023-09-12T16:52:25;18.50;;;13.50;;
22468;SDS011;11401;50.792;4.352;2023-09-12T16:54:52;19.15;;;13.80;;
22468;SDS011;11401;50.792;4.352;2023-09-12T16:57:19;19.38;;;13.73;;
22468;SDS011;11401;50.792;4.352;2023-09-12T16:59:46;16.13;;;12.55;;
22468;SDS011;11401;50.792;4.352;2023-09-12T17:02:14;19.08;;;13.50;;
22468;SDS011;11401;50.792;4.352;2023-09-12T17:04:41;18.98;;;13.45;;
22468;SDS011;11401;50.792;4.352;2023-09-12T17:07:10;17.65;;;12.90;;
22468;SDS011;11401;50.792;4.352;2023-09-12T17:09:39;14.13;;;12.63;;
22468;SDS011;11401;50.792;4.352;2023-09-12T17:12:07;20.58;;;13.70;;
22468;SDS011;11401;50.792;4.352;2023-09-12T17:14:35;16.65;;;12.63;;
22468;SDS011;11401;50.792;4.352;2023-09-12T17:17:02;17.45;;;13.07;;
22468;SDS011;11401;50.792;4.352;2023-09-12T17:19:29;18.88;;;13.68;;
22468;SDS011;11401;50.792;4.352;2023-09-12T17:21:57;15.40;;;12.85;;
22468;SDS011;11401;50.792;4.352;2023-09-12T17:24:24;17.45;;;12.88;;
22468;SDS011;11401;50.792;4.352;2023-09-12T17:26:51;19.35;;;12.48;;
22468;SDS011;11401;50.792;4.352;2023-09-12T17:29:20;19.20;;;13.85;;
22468;SDS011;11401;50.792;4.352;2023-09-12T17:31:52;15.50;;;12.32;;
22468;SDS011;11401;50.792;4.352;2023-09-12T17:34:19;18.38;;;11.70;;
22468;SDS011;11401;50.792;4.352;2023-09-12T17:37:07;21.10;;;12.93;;
22468;SDS011;11401;50.792;4.352;2023-09-12T17:39:35;15.40;;;12.25;;
22468;SDS011;11401;50.792;4.352;2023-09-12T17:42:03;16.95;;;12.18;;
22468;SDS011;11401;50.792;4.352;2023-09-12T17:44:31;16.88;;;11.05;;
22468;SDS011;11401;50.792;4.352;2023-09-12T17:46:58;15.85;;;11.52;;
22468;SDS011;11401;50.792;4.352;2023-09-12T17:49:25;13.55;;;11.32;;
22468;SDS011;11401;50.792;4.352;2023-09-12T17:51:53;13.40;;;10.57;;
22468;SDS011;11401;50.792;4.352;2023-09-12T17:54:24;11.98;;;9.68;;
22468;SDS011;11401;50.792;4.352;2023-09-12T17:56:51;14.70;;;11.32;;
22468;SDS011;11401;50.792;4.352;2023-09-12T17:59:18;14.85;;;10.55;;
22468;SDS011;11401;50.792;4.352;2023-09-12T18:01:45;13.93;;;10.48;;
22468;SDS011;11401;50.792;4.352;2023-09-12T18:04:13;12.25;;;10.23;;
22468;SDS011;11401;50.792;4.352;2023-09-12T18:06:40;11.70;;;9.85;;
22468;SDS011;11401;50.792;4.352;2023-09-12T18:09:07;13.98;;;9.68;;
22468;SDS011;11401;50.792;4.352;2023-09-12T18:11:36;10.43;;;9.32;;
22468;SDS011;11401;50.792;4.352;2023-09-12T18:14:03;10.80;;;9.23;;
22468;SDS011;11401;50.792;4.352;2023-09-12T18:16:30;10.45;;;9.02;;
22468;SDS011;11401;50.792;4.352;2023-09-12T18:18:57;14.45;;;9.57;;
22468;SDS011;11401;50.792;4.352;2023-09-12T18:21:24;9.90;;;7.85;;
22468;SDS011;11401;50.792;4.352;2023-09-12T18:23:51;10.07;;;9.10;;
22468;SDS011;11401;50.792;4.352;2023-09-12T18:26:18;12.20;;;8.93;;
22468;SDS011;11401;50.792;4.352;2023-09-12T18:28:46;12.70;;;8.77;;
22468;SDS011;11401;50.792;4.352;2023-09-12T18:31:15;11.32;;;9.48;;
22468;SDS011;11401;50.792;4.352;2023-09-12T18:33:45;12.13;;;9.75;;
22468;SDS011;11401;50.792;4.352;2023-09-12T18:36:13;11.43;;;8.93;;
22468;SDS011;11401;50.792;4.352;2023-09-12T18:38:41;12.07;;;9.15;;
22468;SDS011;11401;50.792;4.352;2023-09-12T18:41:10;10.90;;;8.52;;
22468;SDS011;11401;50.792;4.352;2023-09-12T18:43:38;15.13;;;9.50;;
22468;SDS011;11401;50.792;4.352;2023-09-12T18:46:08;12.60;;;9.77;;
22468;SDS011;11401;50.792;4.352;2023-09-12T18:48:36;16.40;;;9.52;;
22468;SDS011;11401;50.792;4.352;2023-09-12T18:51:04;11.48;;;9.02;;